sensor_id;sensor_type;location;lat;lon;timestamp;pressure;altitude;pressure_sealevel;temperature;humidity
71573;BME280;59408;51.032;9.410;2023-08-01T00:02:24;97628.34;;;14.54;100.00
71573;BME280;59408;51.032;9.410;2023-08-01T00:04:51;97613.06;;;14.56;100.00
71573;BME280;59408;51.032;9.410;2023-08-01T00:07:18;97606.34;;;14.57;100.00
71573;BME280;59408;51.032;9.410;2023-08-01T00:09:45;97606.75;;;14.59;100.00
71573;BME280;59408;51.032;9.410;2023-08-01T00:12:12;97590.66;;;14.61;100.00
71573;BME280;59408;51.032;9.410;2023-08-01T00:14:40;97565.56;;;14.63;100.00
71573;BME280;59408;51.032;9.410;2023-08-01T00:17:06;97569.88;;;14.64;100.00
71573;BME280;59408;51.032;9.410;2023-08-01T00:19:33;97565.97;;;14.65;100.00
71573;BME280;59408;51.032;9.410;2023-08-01T00:21:59;97567.47;;;14.69;100.00
71573;BME280;59408;51.032;9.410;2023-08-01T00:24:26;97548.66;;;14.71;100.00
71573;BME280;59408;51.032;9.410;2023-08-01T00:26:52;97525.53;;;14.73;100.00
71573;BME280;59408;51.032;9.410;2023-08-01T00:29:19;97508.66;;;14.70;100.00
71573;BME280;59408;51.032;9.410;2023-08-01T00:31:47;97496.91;;;14.70;100.00
71573;BME280;59408;51.032;9.410;2023-08-01T00:34:14;97486.72;;;14.70;100.00
71573;BME280;59408;51.032;9.410;2023-08-01T00:36:40;97466.34;;;14.68;100.00
71573;BME280;59408;51.032;9.410;2023-08-01T00:39:07;97433.00;;;14.69;100.00
71573;BME280;59408;51.032;9.410;2023-08-01T00:41:34;97433.78;;;14.70;100.00
71573;BME280;59408;51.032;9.410;2023-08-01T00:44:00;97431.41;;;14.72;100.00
71573;BME280;59408;51.032;9.410;2023-08-01T00:46:27;97422.41;;;14.71;100.00
71573;BME280;59408;51.032;9.410;2023-08-01T00:48:56;97419.22;;;14.77;100.00
71573;BME280;59408;51.032;9.410;2023-08-01T00:51:22;97432.16;;;14.76;100.00
71573;BME280;59408;51.032;9.410;2023-08-01T00:53:49;97439.59;;;14.79;100.00
71573;BME280;59408;51.032;9.410;2023-08-01T00:56:16;97459.97;;;14.82;100.00
71573;BME280;59408;51.032;9.410;2023-08-01T00:58:43;97454.88;;;14.80;100.00
71573;BME280;59408;51.032;9.410;2023-08-01T01:01:10;97474.88;;;14.81;100.00
71573;BME280;59408;51.032;9.410;2023-08-01T01:03:37;97493.69;;;14.79;100.00
71573;BME280;59408;51.032;9.410;2023-08-01T01:06:11;97505.09;;;14.77;100.00
71573;BME280;59408;51.032;9.410;2023-08-01T01:08:40;97520.38;;;14.78;100.00
71573;BME280;59408;51.032;9.410;2023-08-01T01:11:06;97518.44;;;14.75;100.00
71573;BME280;59408;51.032;9.410;2023-08-01T01:13:33;97524.69;;;14.76;100.00
71573;BME280;59408;51.032;9.410;2023-08-01T01:15:59;97519.22;;;14.76;100.00
71573;BME280;59408;51.032;9.410;2023-08-01T01:18:26;97509.06;;;14.73;100.00
71573;BME280;59408;51.032;9.410;2023-08-01T01:20:54;97516.13;;;14.70;100.00
71573;BME280;59408;51.032;9.410;2023-08-01T01:23:21;97525.13;;;14.70;100.00
71573;BME280;59408;51.032;9.410;2023-08-01T01:25:49;97522.78;;;14.69;100.00
71573;BME280;59408;51.032;9.410;2023-08-01T01:28:17;97507.09;;;14.69;100.00
71573;BME280;59408;51.032;9.410;2023-08-01T01:30:44;97508.28;;;14.68;100.00
71573;BME280;59408;51.032;9.410;2023-08-01T01:33:12;97504.75;;;14.68;100.00
71573;BME280;59408;51.032;9.410;2023-08-01T01:35:39;97498.88;;;14.66;100.00
71573;BME280;59408;51.032;9.410;2023-08-01T01:38:08;97497.31;;;14.68;100.00
71573;BME280;59408;51.032;9.410;2023-08-01T01:40:35;97492.66;;;14.65;100.00
71573;BME280;59408;51.032;9.410;2023-08-01T01:43:02;97478.50;;;14.67;100.00
71573;BME280;59408;51.032;9.410;2023-08-01T01:45:28;97480.09;;;14.64;100.00
71573;BME280;59408;51.032;9.410;2023-08-01T01:47:55;97464.41;;;14.65;100.00
71573;BME280;59408;51.032;9.410;2023-08-01T01:50:22;97462.47;;;14.65;100.00
71573;BME280;59408;51.032;9.410;2023-08-01T01:52:48;97456.53;;;14.67;100.00
71573;BME280;59408;51.032;9.410;2023-08-01T01:55:16;97442.47;;;14.65;100.00
71573;BME280;59408;51.032;9.410;2023-08-01T01:57:43;97441.25;;;14.66;100.00
71573;BME280;59408;51.032;9.410;2023-08-01T02:00:10;97438.56;;;14.62;100.00
71573;BME280;59408;51.032;9.410;2023-08-01T02:02:37;97438.56;;;14.59;100.00
71573;BME280;59408;51.032;9.410;2023-08-01T02:05:04;97432.31;;;14.58;100.00
71573;BME280;59408;51.032;9.410;2023-08-01T02:07:31;97430.00;;;14.57;100.00
71573;BME280;59408;51.032;9.410;2023-08-01T02:09:58;97417.84;;;14.54;100.00
71573;BME280;59408;51.032;9.410;2023-08-01T02:12:26;97403.72;;;14.56;100.00
71573;BME280;59408;51.032;9.410;2023-08-01T02:14:52;97397.47;;;14.55;100.00
71573;BME280;59408;51.032;9.410;2023-08-01T02:17:19;97397.44;;;14.52;100.00
71573;BME280;59408;51.032;9.410;2023-08-01T02:19:45;97387.28;;;14.49;100.00
71573;BME280;59408;51.032;9.410;2023-08-01T02:22:12;97392.75;;;14.49;100.00
71573;BME280;59408;51.032;9.410;2023-08-01T02:24:38;97386.47;;;14.52;100.00
71573;BME280;59408;51.032;9.410;2023-08-01T02:27:05;97392.34;;;14.50;100.00
71573;BME280;59408;51.032;9.410;2023-08-01T02:29:33;97391.56;;;14.50;100.00
71573;BME280;59408;51.032;9.410;2023-08-01T02:32:00;97393.53;;;14.49;100.00
71573;BME280;59408;51.032;9.410;2023-08-01T02:34:26;97387.69;;;14.47;100.00
71573;BME280;59408;51.032;9.410;2023-08-01T02:36:53;97386.91;;;14.47;100.00
71573;BME280;59408;51.032;9.410;2023-08-01T02:39:20;97378.31;;;14.45;100.00
71573;BME280;59408;51.032;9.410;2023-08-01T02:41:46;97383.00;;;14.44;100.00
71573;BME280;59408;51.032;9.410;2023-08-01T02:44:13;97380.66;;;14.46;100.00
71573;BME280;59408;51.032;9.410;2023-08-01T02:46:41;97387.28;;;14.49;100.00
71573;BME280;59408;51.032;9.410;2023-08-01T02:49:08;97386.91;;;14.47;100.00
71573;BME280;59408;51.032;9.410;2023-08-01T02:51:34;97377.91;;;14.46;100.00
71573;BME280;59408;51.032;9.410;2023-08-01T02:54:01;97386.53;;;14.45;100.00
71573;BME280;59408;51.032;9.410;2023-08-01T02:56:28;97362.25;;;14.43;100.00
71573;BME280;59408;51.032;9.410;2023-08-01T02:58:54;97353.22;;;14.46;100.00
71573;BME280;59408;51.032;9.410;2023-08-01T03:01:21;97344.59;;;14.44;100.00
71573;BME280;59408;51.032;9.410;2023-08-01T03:03:49;97334.03;;;14.43;100.00
71573;BME280;59408;51.032;9.410;2023-08-01T03:06:15;97314.84;;;14.39;100.00
71573;BME280;59408;51.032;9.410;2023-08-01T03:08:42;97310.56;;;14.38;100.00
71573;BME280;59408;51.032;9.410;2023-08-01T03:11:09;97322.34;;;14.39;100.00
71573;BME280;59408;51.032;9.410;2023-08-01T03:13:36;97313.66;;;14.40;100.00
71573;BME280;59408;51.032;9.410;2023-08-01T03:16:05;97286.22;;;14.44;100.00
71573;BME280;59408;51.032;9.410;2023-08-01T03:18:32;97293.22;;;14.48;100.00
71573;BME280;59408;51.032;9.410;2023-08-01T03:20:59;97301.81;;;14.50;100.00
71573;BME280;59408;51.032;9.410;2023-08-01T03:23:26;97306.50;;;14.53;100.00
71573;BME280;59408;51.032;9.410;2023-08-01T03:25:53;97311.63;;;14.55;100.00
71573;BME280;59408;51.032;9.410;2023-08-01T03:28:19;97311.22;;;14.56;100.00
71573;BME280;59408;51.032;9.410;2023-08-01T03:30:46;97310.44;;;14.56;100.00
71573;BME280;59408;51.032;9.410;2023-08-01T03:33:12;97319.84;;;14.55;100.00
71573;BME280;59408;51.032;9.410;2023-08-01T03:35:39;97310.44;;;14.56;100.00
71573;BME280;59408;51.032;9.410;2023-08-01T03:38:07;97311.63;;;14.55;100.00
71573;BME280;59408;51.032;9.410;2023-08-01T03:40:34;97319.06;;;14.54;100.00
71573;BME280;59408;51.032;9.410;2023-08-01T03:43:00;97309.66;;;14.52;100.00
71573;BME280;59408;51.032;9.410;2023-08-01T03:45:27;97316.72;;;14.49;100.00
71573;BME280;59408;51.032;9.410;2023-08-01T03:47:54;97306.56;;;14.46;100.00
71573;BME280;59408;51.032;9.410;2023-08-01T03:50:20;97290.53;;;14.45;100.00
71573;BME280;59408;51.032;9.410;2023-08-01T03:52:47;97259.56;;;14.44;100.00
71573;BME280;59408;51.032;9.410;2023-08-01T03:55:15;97232.53;;;14.43;100.00
71573;BME280;59408;51.032;9.410;2023-08-01T03:57:41;97240.38;;;14.41;100.00
71573;BME280;59408;51.032;9.410;2023-08-01T04:00:08;97248.63;;;14.41;100.00
71573;BME280;59408;51.032;9.410;2023-08-01T04:02:35;97261.56;;;14.40;100.00
71573;BME280;59408;51.032;9.410;2023-08-01T04:05:02;97274.47;;;14.43;100.00
71573;BME280;59408;51.032;9.410;2023-08-01T04:07:29;97266.59;;;14.45;100.00
71573;BME280;59408;51.032;9.410;2023-08-01T04:09:55;97276.00;;;14.48;100.00
71573;BME280;59408;51.032;9.410;2023-08-01T04:12:23;97250.88;;;14.49;100.00
71573;BME280;59408;51.032;9.410;2023-08-01T04:14:50;97245.75;;;14.51;100.00
71573;BME280;59408;51.032;9.410;2023-08-01T04:17:16;97237.91;;;14.53;100.00
71573;BME280;59408;51.032;9.410;2023-08-01T04:19:43;97229.31;;;14.55;100.00
71573;BME280;59408;51.032;9.410;2023-08-01T04:22:10;97221.44;;;14.57;100.00
71573;BME280;59408;51.032;9.410;2023-08-01T04:24:36;97209.22;;;14.61;100.00
71573;BME280;59408;51.032;9.410;2023-08-01T04:27:03;97206.84;;;14.63;100.00
71573;BME280;59408;51.032;9.410;2023-08-01T04:29:31;97205.25;;;14.66;100.00
71573;BME280;59408;51.032;9.410;2023-08-01T04:31:58;97207.94;;;14.69;100.00
71573;BME280;59408;51.032;9.410;2023-08-01T04:34:25;97210.69;;;14.69;100.00
71573;BME280;59408;51.032;9.410;2023-08-01T04:36:51;97215.75;;;14.75;100.00
71573;BME280;59408;51.032;9.410;2023-08-01T04:39:18;97216.88;;;14.77;100.00
71573;BME280;59408;51.032;9.410;2023-08-01T04:41:44;97207.06;;;14.80;100.00
71573;BME280;59408;51.032;9.410;2023-08-01T04:44:11;97194.88;;;14.81;100.00
71573;BME280;59408;51.032;9.410;2023-08-01T04:46:39;97192.13;;;14.81;100.00
71573;BME280;59408;51.032;9.410;2023-08-01T04:49:06;97201.16;;;14.81;100.00
71573;BME280;59408;51.032;9.410;2023-08-01T04:51:32;97196.84;;;14.80;100.00
71573;BME280;59408;51.032;9.410;2023-08-01T04:53:59;97203.13;;;14.81;100.00
71573;BME280;59408;51.032;9.410;2023-08-01T04:56:25;97183.91;;;14.81;100.00
71573;BME280;59408;51.032;9.410;2023-08-01T04:58:52;97193.28;;;14.83;100.00
71573;BME280;59408;51.032;9.410;2023-08-01T05:01:19;97187.44;;;14.81;100.00
71573;BME280;59408;51.032;9.410;2023-08-01T05:03:47;97184.69;;;14.81;100.00
71573;BME280;59408;51.032;9.410;2023-08-01T05:06:14;97174.41;;;14.85;100.00
71573;BME280;59408;51.032;9.410;2023-08-01T05:08:40;97192.44;;;14.86;100.00
71573;BME280;59408;51.032;9.410;2023-08-01T05:11:07;97191.63;;;14.89;100.00
71573;BME280;59408;51.032;9.410;2023-08-01T05:13:33;97202.63;;;14.89;100.00
71573;BME280;59408;51.032;9.410;2023-08-01T05:16:00;97200.66;;;14.90;100.00
71573;BME280;59408;51.032;9.410;2023-08-01T05:18:27;97206.50;;;14.92;100.00
71573;BME280;59408;51.032;9.410;2023-08-01T05:20:54;97211.94;;;14.95;100.00
71573;BME280;59408;51.032;9.410;2023-08-01T05:23:21;97214.28;;;14.97;100.00
71573;BME280;59408;51.032;9.410;2023-08-01T05:25:47;97217.41;;;14.99;100.00
71573;BME280;59408;51.032;9.410;2023-08-01T05:28:14;97213.47;;;15.00;100.00
71573;BME280;59408;51.032;9.410;2023-08-01T05:30:41;97220.06;;;15.02;100.00
71573;BME280;59408;51.032;9.410;2023-08-01T05:33:07;97220.44;;;15.04;100.00
71573;BME280;59408;51.032;9.410;2023-08-01T05:35:34;97232.59;;;15.07;100.00
71573;BME280;59408;51.032;9.410;2023-08-01T05:38:02;97221.97;;;15.09;100.00
71573;BME280;59408;51.032;9.410;2023-08-01T05:40:28;97216.78;;;15.15;100.00
71573;BME280;59408;51.032;9.410;2023-08-01T05:42:55;97233.16;;;15.22;100.00
71573;BME280;59408;51.032;9.410;2023-08-01T05:45:21;97233.16;;;15.22;100.00
71573;BME280;59408;51.032;9.410;2023-08-01T05:47:48;97235.84;;;15.29;100.00
71573;BME280;59408;51.032;9.410;2023-08-01T05:50:15;97229.13;;;15.30;100.00
71573;BME280;59408;51.032;9.410;2023-08-01T05:52:41;97249.50;;;15.32;100.00
71573;BME280;59408;51.032;9.410;2023-08-01T05:55:09;97248.72;;;15.32;100.00
71573;BME280;59408;51.032;9.410;2023-08-01T05:57:36;97250.66;;;15.35;100.00
71573;BME280;59408;51.032;9.410;2023-08-01T06:00:03;97254.19;;;15.35;100.00
71573;BME280;59408;51.032;9.410;2023-08-01T06:02:30;97245.13;;;15.38;100.00
71573;BME280;59408;51.032;9.410;2023-08-01T06:04:56;97267.44;;;15.40;100.00
71573;BME280;59408;51.032;9.410;2023-08-01T06:07:23;97266.25;;;15.41;100.00
71573;BME280;59408;51.032;9.410;2023-08-01T06:09:50;97255.31;;;15.38;100.00
71573;BME280;59408;51.032;9.410;2023-08-01T06:12:18;97264.34;;;15.38;100.00
71573;BME280;59408;51.032;9.410;2023-08-01T06:14:44;97266.31;;;15.38;100.00
71573;BME280;59408;51.032;9.410;2023-08-01T06:17:11;97278.38;;;15.44;100.00
71573;BME280;59408;51.032;9.410;2023-08-01T06:19:38;97275.66;;;15.44;100.00
71573;BME280;59408;51.032;9.410;2023-08-01T06:22:05;97285.75;;;15.51;100.00
71573;BME280;59408;51.032;9.410;2023-08-01T06:24:31;97275.91;;;15.53;100.00
71573;BME280;59408;51.032;9.410;2023-08-01T06:26:58;97281.00;;;15.55;100.00
71573;BME280;59408;51.032;9.410;2023-08-01T06:29:26;97283.25;;;15.63;100.00
71573;BME280;59408;51.032;9.410;2023-08-01T06:31:52;97294.66;;;15.62;100.00
71573;BME280;59408;51.032;9.410;2023-08-01T06:34:19;97301.59;;;15.70;100.00
71573;BME280;59408;51.032;9.410;2023-08-01T06:36:46;97294.88;;;15.74;100.00
71573;BME280;59408;51.032;9.410;2023-08-01T06:39:12;97296.38;;;15.79;100.00
71573;BME280;59408;51.032;9.410;2023-08-01T06:41:39;97315.16;;;15.84;100.00
71573;BME280;59408;51.032;9.410;2023-08-01T06:44:06;97303.56;;;15.96;100.00
71573;BME280;59408;51.032;9.410;2023-08-01T06:46:33;97294.41;;;16.03;100.00
71573;BME280;59408;51.032;9.410;2023-08-01T06:49:00;97302.25;;;16.04;100.00
71573;BME280;59408;51.032;9.410;2023-08-01T06:51:27;97306.16;;;16.07;100.00
71573;BME280;59408;51.032;9.410;2023-08-01T06:53:54;97314.03;;;16.05;100.00
71573;BME280;59408;51.032;9.410;2023-08-01T06:56:20;97311.34;;;16.01;100.00
71573;BME280;59408;51.032;9.410;2023-08-01T06:58:47;97315.09;;;15.88;100.00
71573;BME280;59408;51.032;9.410;2023-08-01T07:01:14;97321.06;;;15.82;100.00
71573;BME280;59408;51.032;9.410;2023-08-01T07:03:42;97316.44;;;15.76;100.00
71573;BME280;59408;51.032;9.410;2023-08-01T07:06:08;97317.28;;;15.73;100.00
71573;BME280;59408;51.032;9.410;2023-08-01T07:08:35;97319.41;;;15.62;100.00
71573;BME280;59408;51.032;9.410;2023-08-01T07:11:01;97316.72;;;15.55;100.00
71573;BME280;59408;51.032;9.410;2023-08-01T07:13:28;97322.25;;;15.51;100.00
71573;BME280;59408;51.032;9.410;2023-08-01T07:15:55;97321.84;;;15.53;100.00
71573;BME280;59408;51.032;9.410;2023-08-01T07:18:21;97334.13;;;15.44;100.00
71573;BME280;59408;51.032;9.410;2023-08-01T07:20:59;97338.94;;;15.37;100.00
71573;BME280;59408;51.032;9.410;2023-08-01T07:23:25;97342.13;;;15.32;100.00
71573;BME280;59408;51.032;9.410;2023-08-01T07:25:52;97355.09;;;15.31;100.00
71573;BME280;59408;51.032;9.410;2023-08-01T07:28:19;97354.03;;;15.22;100.00
71573;BME280;59408;51.032;9.410;2023-08-01T07:30:45;97358.44;;;15.12;100.00
71573;BME280;59408;51.032;9.410;2023-08-01T07:33:12;97368.34;;;15.02;100.00
71573;BME280;59408;51.032;9.410;2023-08-01T07:35:39;97358.22;;;14.96;100.00
71573;BME280;59408;51.032;9.410;2023-08-01T07:38:06;97373.13;;;14.98;100.00
71573;BME280;59408;51.032;9.410;2023-08-01T07:40:36;97375.47;;;15.00;100.00
71573;BME280;59408;51.032;9.410;2023-08-01T07:43:02;97387.63;;;14.99;100.00
71573;BME280;59408;51.032;9.410;2023-08-01T07:45:33;97388.59;;;15.19;100.00
71573;BME280;59408;51.032;9.410;2023-08-01T07:47:59;97382.56;;;15.31;100.00
71573;BME280;59408;51.032;9.410;2023-08-01T07:50:26;97395.06;;;15.36;100.00
71573;BME280;59408;51.032;9.410;2023-08-01T07:52:53;97395.47;;;15.34;100.00
71573;BME280;59408;51.032;9.410;2023-08-01T07:55:20;97401.75;;;15.35;100.00
71573;BME280;59408;51.032;9.410;2023-08-01T07:57:47;97392.25;;;15.39;100.00
71573;BME280;59408;51.032;9.410;2023-08-01T08:00:14;97393.13;;;15.33;100.00
71573;BME280;59408;51.032;9.410;2023-08-01T08:02:44;97403.63;;;15.41;100.00
71573;BME280;59408;51.032;9.410;2023-08-01T08:05:11;97404.78;;;15.44;100.00
71573;BME280;59408;51.032;9.410;2023-08-01T08:07:38;97405.16;;;15.46;100.00
71573;BME280;59408;51.032;9.410;2023-08-01T08:10:05;97403.91;;;15.51;100.00
71573;BME280;59408;51.032;9.410;2023-08-01T08:12:33;97404.75;;;15.48;99.15
71573;BME280;59408;51.032;9.410;2023-08-01T08:15:00;97414.59;;;15.45;100.00
71573;BME280;59408;51.032;9.410;2023-08-01T08:17:27;97405.59;;;15.41;98.45
71573;BME280;59408;51.032;9.410;2023-08-01T08:19:53;97398.47;;;15.47;99.82
71573;BME280;59408;51.032;9.410;2023-08-01T08:22:20;97408.34;;;15.41;100.00
71573;BME280;59408;51.032;9.410;2023-08-01T08:24:46;97412.28;;;15.40;100.00
71573;BME280;59408;51.032;9.410;2023-08-01T08:27:13;97419.22;;;15.52;100.00
71573;BME280;59408;51.032;9.410;2023-08-01T08:29:41;97409.97;;;15.72;100.00
71573;BME280;59408;51.032;9.410;2023-08-01T08:32:07;97412.69;;;16.03;96.51
71573;BME280;59408;51.032;9.410;2023-08-01T08:34:36;97413.16;;;16.25;99.07
71573;BME280;59408;51.032;9.410;2023-08-01T08:37:03;97420.00;;;16.40;96.05
71573;BME280;59408;51.032;9.410;2023-08-01T08:39:29;97420.13;;;16.83;91.74
71573;BME280;59408;51.032;9.410;2023-08-01T08:41:57;97418.63;;;17.21;87.28
71573;BME280;59408;51.032;9.410;2023-08-01T08:44:23;97415.13;;;17.41;83.87
71573;BME280;59408;51.032;9.410;2023-08-01T08:46:53;97430.50;;;17.61;83.04
71573;BME280;59408;51.032;9.410;2023-08-01T08:49:22;97425.03;;;17.58;79.98
71573;BME280;59408;51.032;9.410;2023-08-01T08:51:48;97425.81;;;17.58;78.38
71573;BME280;59408;51.032;9.410;2023-08-01T08:54:16;97430.31;;;17.49;82.79
71573;BME280;59408;51.032;9.410;2023-08-01T08:56:43;97429.91;;;17.50;82.52
71573;BME280;59408;51.032;9.410;2023-08-01T08:59:11;97433.53;;;17.47;81.40
71573;BME280;59408;51.032;9.410;2023-08-01T09:01:38;97439.84;;;17.24;81.19
71573;BME280;59408;51.032;9.410;2023-08-01T09:04:08;97432.75;;;17.04;83.18
71573;BME280;59408;51.032;9.410;2023-08-01T09:06:40;97426.72;;;17.32;83.99
71573;BME280;59408;51.032;9.410;2023-08-01T09:09:12;97431.84;;;17.93;82.52
71573;BME280;59408;51.032;9.410;2023-08-01T09:11:44;97438.16;;;17.74;80.77
71573;BME280;59408;51.032;9.410;2023-08-01T09:14:11;97436.59;;;17.73;80.63
71573;BME280;59408;51.032;9.410;2023-08-01T09:16:39;97439.34;;;17.73;82.15
71573;BME280;59408;51.032;9.410;2023-08-01T09:19:09;97446.06;;;17.72;83.81
71573;BME280;59408;51.032;9.410;2023-08-01T09:21:36;97448.09;;;17.48;82.38
71573;BME280;59408;51.032;9.410;2023-08-01T09:24:09;97440.72;;;17.41;83.57
71573;BME280;59408;51.032;9.410;2023-08-01T09:26:37;97450.69;;;17.35;83.82
71573;BME280;59408;51.032;9.410;2023-08-01T09:29:04;97447.91;;;17.35;83.97
71573;BME280;59408;51.032;9.410;2023-08-01T09:31:33;97449.47;;;17.36;82.08
71573;BME280;59408;51.032;9.410;2023-08-01T09:34:00;97443.78;;;17.47;85.43
71573;BME280;59408;51.032;9.410;2023-08-01T09:36:28;97447.00;;;17.65;81.38
71573;BME280;59408;51.032;9.410;2023-08-01T09:38:58;97446.81;;;17.52;83.45
71573;BME280;59408;51.032;9.410;2023-08-01T09:41:25;97450.63;;;17.58;84.62
71573;BME280;59408;51.032;9.410;2023-08-01T09:43:52;97451.84;;;17.57;83.82
71573;BME280;59408;51.032;9.410;2023-08-01T09:46:19;97440.91;;;17.74;82.93
71573;BME280;59408;51.032;9.410;2023-08-01T09:48:45;97447.47;;;17.80;81.63
71573;BME280;59408;51.032;9.410;2023-08-01T09:51:13;97444.72;;;17.80;83.73
71573;BME280;59408;51.032;9.410;2023-08-01T09:53:49;97450.53;;;17.65;81.96
71573;BME280;59408;51.032;9.410;2023-08-01T09:56:19;97447.09;;;17.38;84.67
71573;BME280;59408;51.032;9.410;2023-08-01T09:58:46;97455.31;;;17.18;82.74
71573;BME280;59408;51.032;9.410;2023-08-01T10:01:14;97485.97;;;16.74;84.11
71573;BME280;59408;51.032;9.410;2023-08-01T10:03:44;97482.59;;;16.36;83.45
71573;BME280;59408;51.032;9.410;2023-08-01T10:06:14;97491.03;;;16.48;84.17
71573;BME280;59408;51.032;9.410;2023-08-01T10:08:44;97469.09;;;16.45;85.19
71573;BME280;59408;51.032;9.410;2023-08-01T10:11:12;97480.25;;;16.34;84.79
71573;BME280;59408;51.032;9.410;2023-08-01T10:13:41;97492.34;;;16.40;85.20
71573;BME280;59408;51.032;9.410;2023-08-01T10:16:08;97480.25;;;16.61;87.24
71573;BME280;59408;51.032;9.410;2023-08-01T10:18:36;97488.31;;;16.99;85.50
71573;BME280;59408;51.032;9.410;2023-08-01T10:21:04;97477.53;;;17.08;84.32
71573;BME280;59408;51.032;9.410;2023-08-01T10:23:32;97479.66;;;17.43;82.73
71573;BME280;59408;51.032;9.410;2023-08-01T10:26:00;97481.56;;;17.69;80.59
71573;BME280;59408;51.032;9.410;2023-08-01T10:28:35;97474.53;;;17.85;79.54
71573;BME280;59408;51.032;9.410;2023-08-01T10:31:09;97480.06;;;17.85;76.51
71573;BME280;59408;51.032;9.410;2023-08-01T10:33:40;97478.16;;;17.82;76.01
71573;BME280;59408;51.032;9.410;2023-08-01T10:36:17;97480.22;;;17.78;78.60
71573;BME280;59408;51.032;9.410;2023-08-01T10:38:46;97477.97;;;18.48;74.91
71573;BME280;59408;51.032;9.410;2023-08-01T10:41:19;97470.88;;;19.12;72.29
71573;BME280;59408;51.032;9.410;2023-08-01T10:43:47;97473.34;;;19.55;69.85
71573;BME280;59408;51.032;9.410;2023-08-01T10:46:15;97456.88;;;19.35;71.20
71573;BME280;59408;51.032;9.410;2023-08-01T10:48:49;97462.75;;;19.21;71.56
71573;BME280;59408;51.032;9.410;2023-08-01T10:51:16;97463.81;;;19.11;73.32
71573;BME280;59408;51.032;9.410;2023-08-01T10:53:42;97468.09;;;19.44;71.25
71573;BME280;59408;51.032;9.410;2023-08-01T10:56:16;97453.44;;;20.14;67.52
71573;BME280;59408;51.032;9.410;2023-08-01T10:58:42;97463.59;;;20.05;63.92
71573;BME280;59408;51.032;9.410;2023-08-01T11:01:11;97464.41;;;19.76;64.26
71573;BME280;59408;51.032;9.410;2023-08-01T11:03:38;97472.19;;;19.81;64.98
71573;BME280;59408;51.032;9.410;2023-08-01T11:06:05;97468.56;;;19.84;64.10
71573;BME280;59408;51.032;9.410;2023-08-01T11:08:36;97472.03;;;20.14;63.48
71573;BME280;59408;51.032;9.410;2023-08-01T11:11:04;97467.22;;;19.89;63.70
71573;BME280;59408;51.032;9.410;2023-08-01T11:13:31;97487.69;;;19.79;66.85
71573;BME280;59408;51.032;9.410;2023-08-01T11:15:57;97487.75;;;19.63;65.02
71573;BME280;59408;51.032;9.410;2023-08-01T11:18:25;97480.25;;;19.31;67.04
71573;BME280;59408;51.032;9.410;2023-08-01T11:20:52;97478.56;;;19.37;67.89
71573;BME280;59408;51.032;9.410;2023-08-01T11:23:27;97473.91;;;19.17;66.44
71573;BME280;59408;51.032;9.410;2023-08-01T11:25:54;97478.38;;;19.44;65.89
71573;BME280;59408;51.032;9.410;2023-08-01T11:28:21;97482.06;;;19.82;67.32
71573;BME280;59408;51.032;9.410;2023-08-01T11:30:48;97494.41;;;19.49;64.82
71573;BME280;59408;51.032;9.410;2023-08-01T11:33:15;97497.25;;;18.84;67.81
71573;BME280;59408;51.032;9.410;2023-08-01T11:35:44;97500.09;;;18.44;70.16
71573;BME280;59408;51.032;9.410;2023-08-01T11:38:10;97503.53;;;18.13;71.45
71573;BME280;59408;51.032;9.410;2023-08-01T11:40:37;97503.56;;;17.73;73.92
71573;BME280;59408;51.032;9.410;2023-08-01T11:43:04;97502.00;;;17.72;73.05
71573;BME280;59408;51.032;9.410;2023-08-01T11:45:31;97500.66;;;18.56;71.81
71573;BME280;59408;51.032;9.410;2023-08-01T11:47:58;97493.09;;;19.08;70.89
71573;BME280;59408;51.032;9.410;2023-08-01T11:50:25;97505.47;;;19.65;68.72
71573;BME280;59408;51.032;9.410;2023-08-01T11:52:53;97505.53;;;19.90;68.84
71573;BME280;59408;51.032;9.410;2023-08-01T11:55:21;97499.66;;;19.76;69.68
71573;BME280;59408;51.032;9.410;2023-08-01T11:57:53;97497.97;;;19.33;68.12
71573;BME280;59408;51.032;9.410;2023-08-01T12:00:24;97520.13;;;19.01;69.95
71573;BME280;59408;51.032;9.410;2023-08-01T12:03:04;97520.09;;;18.68;71.75
71573;BME280;59408;51.032;9.410;2023-08-01T12:05:31;97507.03;;;18.33;72.09
71573;BME280;59408;51.032;9.410;2023-08-01T12:08:09;97523.72;;;17.90;76.66
71573;BME280;59408;51.032;9.410;2023-08-01T12:10:37;97520.03;;;17.57;80.91
71573;BME280;59408;51.032;9.410;2023-08-01T12:13:03;97547.88;;;17.16;84.42
71573;BME280;59408;51.032;9.410;2023-08-01T12:15:33;97542.34;;;17.16;86.96
71573;BME280;59408;51.032;9.410;2023-08-01T12:18:00;97548.94;;;17.22;89.49
71573;BME280;59408;51.032;9.410;2023-08-01T12:20:26;97539.66;;;17.59;85.10
71573;BME280;59408;51.032;9.410;2023-08-01T12:22:53;97538.34;;;18.06;84.40
71573;BME280;59408;51.032;9.410;2023-08-01T12:25:21;97533.28;;;18.41;84.46
71573;BME280;59408;51.032;9.410;2023-08-01T12:27:47;97533.09;;;18.52;80.87
71573;BME280;59408;51.032;9.410;2023-08-01T12:30:14;97530.41;;;18.48;82.34
71573;BME280;59408;51.032;9.410;2023-08-01T12:32:41;97523.59;;;18.53;80.67
71573;BME280;59408;51.032;9.410;2023-08-01T12:35:10;97521.28;;;18.67;78.94
71573;BME280;59408;51.032;9.410;2023-08-01T12:37:37;97527.31;;;18.26;78.66
71573;BME280;59408;51.032;9.410;2023-08-01T12:40:05;97524.50;;;18.10;80.31
71573;BME280;59408;51.032;9.410;2023-08-01T12:42:33;97520.13;;;18.49;80.55
71573;BME280;59408;51.032;9.410;2023-08-01T12:45:00;97532.13;;;19.10;76.96
71573;BME280;59408;51.032;9.410;2023-08-01T12:47:26;97531.41;;;19.06;76.92
71573;BME280;59408;51.032;9.410;2023-08-01T12:49:53;97522.50;;;19.64;74.62
71573;BME280;59408;51.032;9.410;2023-08-01T12:52:25;97529.28;;;21.22;72.36
71573;BME280;59408;51.032;9.410;2023-08-01T12:54:52;97537.16;;;20.85;72.86